sensor_id;sensor_type;location;lat;lon;timestamp;P1;durP1;ratioP1;P2;durP2;ratioP2
52708;SDS011;38606;52.986;6.980;2023-04-24T00:00:00;0.55;;;0.40;;
52708;SDS011;38606;52.986;6.980;2023-04-24T00:02:30;2.90;;;0.50;;
52708;SDS011;38606;52.986;6.980;2023-04-24T00:04:57;0.52;;;0.52;;
52708;SDS011;38606;52.986;6.980;2023-04-24T00:07:28;0.60;;;0.60;;
52708;SDS011;38606;52.986;6.980;2023-04-24T00:09:54;0.85;;;0.55;;
52708;SDS011;38606;52.986;6.980;2023-04-24T00:12:20;1.75;;;0.60;;
52708;SDS011;38606;52.986;6.980;2023-04-24T00:14:46;2.55;;;0.75;;
52708;SDS011;38606;52.986;6.980;2023-04-24T00:17:11;1.58;;;0.70;;
52708;SDS011;38606;52.986;6.980;2023-04-24T00:19:37;0.70;;;0.70;;
52708;SDS011;38606;52.986;6.980;2023-04-24T00:22:03;1.13;;;1.00;;
52708;SDS011;38606;52.986;6.980;2023-04-24T00:24:29;2.72;;;0.88;;
52708;SDS011;38606;52.986;6.980;2023-04-24T00:26:54;1.45;;;1.00;;
52708;SDS011;38606;52.986;6.980;2023-04-24T00:29:21;1.60;;;1.50;;
52708;SDS011;38606;52.986;6.980;2023-04-24T00:31:46;2.60;;;1.40;;
52708;SDS011;38606;52.986;6.980;2023-04-24T00:34:12;1.50;;;1.40;;
52708;SDS011;38606;52.986;6.980;2023-04-24T00:36:38;1.65;;;1.55;;
52708;SDS011;38606;52.986;6.980;2023-04-24T00:39:04;1.65;;;1.55;;
52708;SDS011;38606;52.986;6.980;2023-04-24T00:41:30;1.52;;;1.42;;
52708;SDS011;38606;52.986;6.980;2023-04-24T00:43:56;2.20;;;2.10;;
52708;SDS011;38606;52.986;6.980;2023-04-24T00:46:21;2.38;;;1.70;;
52708;SDS011;38606;52.986;6.980;2023-04-24T00:48:47;1.95;;;1.85;;
52708;SDS011;38606;52.986;6.980;2023-04-24T00:51:13;2.63;;;2.08;;
52708;SDS011;38606;52.986;6.980;2023-04-24T00:53:39;2.42;;;2.28;;
52708;SDS011;38606;52.986;6.980;2023-04-24T00:56:05;2.70;;;2.50;;
52708;SDS011;38606;52.986;6.980;2023-04-24T00:58:31;2.72;;;2.53;;
52708;SDS011;38606;52.986;6.980;2023-04-24T01:00:57;2.80;;;2.60;;
52708;SDS011;38606;52.986;6.980;2023-04-24T01:03:26;3.10;;;2.80;;
52708;SDS011;38606;52.986;6.980;2023-04-24T01:05:56;3.20;;;2.90;;
52708;SDS011;38606;52.986;6.980;2023-04-24T01:08:23;3.10;;;2.80;;
52708;SDS011;38606;52.986;6.980;2023-04-24T01:10:51;3.30;;;2.53;;
52708;SDS011;38606;52.986;6.980;2023-04-24T01:13:18;2.72;;;2.30;;
52708;SDS011;38606;52.986;6.980;2023-04-24T01:15:45;2.55;;;2.35;;
52708;SDS011;38606;52.986;6.980;2023-04-24T01:18:11;3.63;;;2.17;;
52708;SDS011;38606;52.986;6.980;2023-04-24T01:20:39;1.80;;;1.70;;
52708;SDS011;38606;52.986;6.980;2023-04-24T01:23:06;2.78;;;2.05;;
52708;SDS011;38606;52.986;6.980;2023-04-24T01:25:32;2.40;;;2.05;;
52708;SDS011;38606;52.986;6.980;2023-04-24T01:27:58;2.00;;;1.90;;
52708;SDS011;38606;52.986;6.980;2023-04-24T01:30:25;2.22;;;1.88;;
52708;SDS011;38606;52.986;6.980;2023-04-24T01:32:51;1.70;;;1.60;;
52708;SDS011;38606;52.986;6.980;2023-04-24T01:35:18;2.08;;;1.80;;
52708;SDS011;38606;52.986;6.980;2023-04-24T01:37:45;1.95;;;1.70;;
52708;SDS011;38606;52.986;6.980;2023-04-24T01:40:10;1.90;;;1.80;;
52708;SDS011;38606;52.986;6.980;2023-04-24T01:42:36;2.00;;;1.90;;
52708;SDS011;38606;52.986;6.980;2023-04-24T01:45:03;2.97;;;1.92;;
52708;SDS011;38606;52.986;6.980;2023-04-24T01:47:30;2.40;;;2.20;;
52708;SDS011;38606;52.986;6.980;2023-04-24T01:49:57;2.20;;;2.10;;
52708;SDS011;38606;52.986;6.980;2023-04-24T01:52:23;2.45;;;2.30;;
52708;SDS011;38606;52.986;6.980;2023-04-24T01:54:49;2.35;;;2.20;;
52708;SDS011;38606;52.986;6.980;2023-04-24T01:57:16;2.50;;;2.40;;
52708;SDS011;38606;52.986;6.980;2023-04-24T01:59:41;2.80;;;2.60;;
52708;SDS011;38606;52.986;6.980;2023-04-24T02:02:07;3.15;;;2.95;;
52708;SDS011;38606;52.986;6.980;2023-04-24T02:04:33;2.75;;;2.55;;
52708;SDS011;38606;52.986;6.980;2023-04-24T02:06:59;3.50;;;3.20;;
52708;SDS011;38606;52.986;6.980;2023-04-24T02:09:25;3.08;;;2.88;;
52708;SDS011;38606;52.986;6.980;2023-04-24T02:11:50;3.58;;;3.28;;
52708;SDS011;38606;52.986;6.980;2023-04-24T02:14:16;3.40;;;3.10;;
52708;SDS011;38606;52.986;6.980;2023-04-24T02:16:42;3.22;;;3.03;;
52708;SDS011;38606;52.986;6.980;2023-04-24T02:19:09;4.40;;;3.20;;
52708;SDS011;38606;52.986;6.980;2023-04-24T02:21:35;3.13;;;2.92;;
52708;SDS011;38606;52.986;6.980;2023-04-24T02:24:00;3.83;;;3.53;;
52708;SDS011;38606;52.986;6.980;2023-04-24T02:26:26;4.47;;;3.25;;
52708;SDS011;38606;52.986;6.980;2023-04-24T02:28:52;3.75;;;3.42;;
52708;SDS011;38606;52.986;6.980;2023-04-24T02:31:18;3.67;;;3.38;;
52708;SDS011;38606;52.986;6.980;2023-04-24T02:33:43;3.35;;;3.13;;
52708;SDS011;38606;52.986;6.980;2023-04-24T02:36:09;5.45;;;3.90;;
52708;SDS011;38606;52.986;6.980;2023-04-24T02:38:35;4.13;;;3.78;;
52708;SDS011;38606;52.986;6.980;2023-04-24T02:41:01;3.95;;;3.53;;
52708;SDS011;38606;52.986;6.980;2023-04-24T02:43:29;4.40;;;4.00;;
52708;SDS011;38606;52.986;6.980;2023-04-24T02:45:54;4.70;;;4.20;;
52708;SDS011;38606;52.986;6.980;2023-04-24T02:48:20;5.35;;;4.63;;
52708;SDS011;38606;52.986;6.980;2023-04-24T02:50:46;5.25;;;4.68;;
52708;SDS011;38606;52.986;6.980;2023-04-24T02:53:12;5.85;;;4.65;;
52708;SDS011;38606;52.986;6.980;2023-04-24T02:55:38;6.30;;;4.97;;
52708;SDS011;38606;52.986;6.980;2023-04-24T02:58:03;5.55;;;5.05;;
52708;SDS011;38606;52.986;6.980;2023-04-24T03:00:29;5.70;;;4.95;;
52708;SDS011;38606;52.986;6.980;2023-04-24T03:02:55;6.43;;;5.43;;
52708;SDS011;38606;52.986;6.980;2023-04-24T03:05:21;5.18;;;4.75;;
52708;SDS011;38606;52.986;6.980;2023-04-24T03:07:47;5.10;;;4.55;;
52708;SDS011;38606;52.986;6.980;2023-04-24T03:10:12;5.57;;;5.07;;
52708;SDS011;38606;52.986;6.980;2023-04-24T03:12:38;7.07;;;5.05;;
52708;SDS011;38606;52.986;6.980;2023-04-24T03:15:04;6.05;;;5.45;;
52708;SDS011;38606;52.986;6.980;2023-04-24T03:17:30;6.18;;;5.25;;
52708;SDS011;38606;52.986;6.980;2023-04-24T03:19:56;5.90;;;5.30;;
52708;SDS011;38606;52.986;6.980;2023-04-24T03:22:22;6.03;;;5.53;;
52708;SDS011;38606;52.986;6.980;2023-04-24T03:24:47;6.18;;;5.20;;
52708;SDS011;38606;52.986;6.980;2023-04-24T03:27:13;6.60;;;5.93;;
52708;SDS011;38606;52.986;6.980;2023-04-24T03:29:39;6.45;;;5.78;;
52708;SDS011;38606;52.986;6.980;2023-04-24T03:32:04;5.80;;;5.30;;
52708;SDS011;38606;52.986;6.980;2023-04-24T03:34:30;5.63;;;5.05;;
52708;SDS011;38606;52.986;6.980;2023-04-24T03:36:56;6.13;;;5.63;;
52708;SDS011;38606;52.986;6.980;2023-04-24T03:39:21;5.78;;;5.05;;
52708;SDS011;38606;52.986;6.980;2023-04-24T03:41:47;6.25;;;5.07;;
52708;SDS011;38606;52.986;6.980;2023-04-24T03:44:13;6.65;;;5.18;;
52708;SDS011;38606;52.986;6.980;2023-04-24T03:46:38;5.60;;;5.10;;
52708;SDS011;38606;52.986;6.980;2023-04-24T03:49:04;5.28;;;4.78;;
52708;SDS011;38606;52.986;6.980;2023-04-24T03:51:30;5.30;;;4.90;;
52708;SDS011;38606;52.986;6.980;2023-04-24T03:53:56;5.85;;;5.35;;
52708;SDS011;38606;52.986;6.980;2023-04-24T03:56:22;6.68;;;4.63;;
52708;SDS011;38606;52.986;6.980;2023-04-24T03:58:48;5.15;;;4.65;;
52708;SDS011;38606;52.986;6.980;2023-04-24T04:01:13;5.43;;;4.93;;
52708;SDS011;38606;52.986;6.980;2023-04-24T04:03:41;6.35;;;4.82;;
52708;SDS011;38606;52.986;6.980;2023-04-24T04:06:06;5.22;;;4.72;;
52708;SDS011;38606;52.986;6.980;2023-04-24T04:08:32;6.82;;;5.20;;
52708;SDS011;38606;52.986;6.980;2023-04-24T04:10:58;5.75;;;5.18;;
52708;SDS011;38606;52.986;6.980;2023-04-24T04:13:24;5.88;;;5.28;;
52708;SDS011;38606;52.986;6.980;2023-04-24T04:15:49;6.13;;;5.53;;
52708;SDS011;38606;52.986;6.980;2023-04-24T04:18:15;7.18;;;5.95;;
52708;SDS011;38606;52.986;6.980;2023-04-24T04:20:41;6.22;;;5.55;;
52708;SDS011;38606;52.986;6.980;2023-04-24T04:23:07;5.40;;;5.00;;
52708;SDS011;38606;52.986;6.980;2023-04-24T04:25:32;6.82;;;5.30;;
52708;SDS011;38606;52.986;6.980;2023-04-24T04:27:58;5.95;;;5.35;;
52708;SDS011;38606;52.986;6.980;2023-04-24T04:30:24;6.13;;;5.60;;
52708;SDS011;38606;52.986;6.980;2023-04-24T04:32:51;6.28;;;5.50;;
52708;SDS011;38606;52.986;6.980;2023-04-24T04:35:16;6.55;;;5.90;;
52708;SDS011;38606;52.986;6.980;2023-04-24T04:37:42;6.72;;;5.90;;
52708;SDS011;38606;52.986;6.980;2023-04-24T04:40:08;6.90;;;6.20;;
52708;SDS011;38606;52.986;6.980;2023-04-24T04:42:37;6.65;;;6.05;;
52708;SDS011;38606;52.986;6.980;2023-04-24T04:45:06;8.90;;;6.00;;
52708;SDS011;38606;52.986;6.980;2023-04-24T04:47:34;6.03;;;5.53;;
52708;SDS011;38606;52.986;6.980;2023-04-24T04:49:59;6.78;;;5.95;;
52708;SDS011;38606;52.986;6.980;2023-04-24T04:52:26;7.05;;;6.35;;
52708;SDS011;38606;52.986;6.980;2023-04-24T04:54:52;6.35;;;5.80;;
52708;SDS011;38606;52.986;6.980;2023-04-24T04:57:18;6.20;;;5.70;;
52708;SDS011;38606;52.986;6.980;2023-04-24T04:59:44;6.38;;;5.78;;
52708;SDS011;38606;52.986;6.980;2023-04-24T05:02:09;6.68;;;5.97;;
52708;SDS011;38606;52.986;6.980;2023-04-24T05:04:35;8.05;;;6.43;;
52708;SDS011;38606;52.986;6.980;2023-04-24T05:07:01;6.50;;;5.78;;
52708;SDS011;38606;52.986;6.980;2023-04-24T05:09:28;7.80;;;5.72;;
52708;SDS011;38606;52.986;6.980;2023-04-24T05:11:54;6.63;;;5.57;;
52708;SDS011;38606;52.986;6.980;2023-04-24T05:14:21;5.78;;;5.10;;
52708;SDS011;38606;52.986;6.980;2023-04-24T05:16:47;6.07;;;5.47;;
52708;SDS011;38606;52.986;6.980;2023-04-24T05:19:13;7.93;;;5.38;;
52708;SDS011;38606;52.986;6.980;2023-04-24T05:21:40;5.90;;;5.30;;
52708;SDS011;38606;52.986;6.980;2023-04-24T05:24:06;7.60;;;5.80;;
52708;SDS011;38606;52.986;6.980;2023-04-24T05:26:32;5.72;;;5.13;;
52708;SDS011;38606;52.986;6.980;2023-04-24T05:28:58;6.55;;;5.80;;
52708;SDS011;38606;52.986;6.980;2023-04-24T05:31:24;5.80;;;5.28;;
52708;SDS011;38606;52.986;6.980;2023-04-24T05:33:50;7.68;;;6.03;;
52708;SDS011;38606;52.986;6.980;2023-04-24T05:36:16;6.03;;;5.43;;
52708;SDS011;38606;52.986;6.980;2023-04-24T05:38:42;6.80;;;5.70;;
52708;SDS011;38606;52.986;6.980;2023-04-24T05:41:07;6.50;;;5.70;;
52708;SDS011;38606;52.986;6.980;2023-04-24T05:43:33;6.38;;;5.55;;
52708;SDS011;38606;52.986;6.980;2023-04-24T05:45:59;6.30;;;5.68;;
52708;SDS011;38606;52.986;6.980;2023-04-24T05:48:24;8.35;;;6.00;;
52708;SDS011;38606;52.986;6.980;2023-04-24T05:50:51;6.72;;;5.30;;
52708;SDS011;38606;52.986;6.980;2023-04-24T05:53:17;7.35;;;5.65;;
52708;SDS011;38606;52.986;6.980;2023-04-24T05:55:43;6.15;;;5.55;;
52708;SDS011;38606;52.986;6.980;2023-04-24T05:58:10;7.20;;;5.70;;
52708;SDS011;38606;52.986;6.980;2023-04-24T06:00:37;6.47;;;5.45;;
52708;SDS011;38606;52.986;6.980;2023-04-24T06:03:06;6.13;;;5.50;;
52708;SDS011;38606;52.986;6.980;2023-04-24T06:05:32;7.32;;;5.90;;
52708;SDS011;38606;52.986;6.980;2023-04-24T06:07:58;6.90;;;5.93;;
52708;SDS011;38606;52.986;6.980;2023-04-24T06:10:24;5.93;;;5.13;;
52708;SDS011;38606;52.986;6.980;2023-04-24T06:12:49;6.53;;;5.60;;
52708;SDS011;38606;52.986;6.980;2023-04-24T06:15:15;6.95;;;5.88;;
52708;SDS011;38606;52.986;6.980;2023-04-24T06:17:41;5.60;;;5.10;;
52708;SDS011;38606;52.986;6.980;2023-04-24T06:20:07;6.35;;;5.63;;
52708;SDS011;38606;52.986;6.980;2023-04-24T06:22:33;5.60;;;4.70;;
52708;SDS011;38606;52.986;6.980;2023-04-24T06:24:59;4.90;;;4.25;;
52708;SDS011;38606;52.986;6.980;2023-04-24T06:27:26;6.22;;;4.60;;
52708;SDS011;38606;52.986;6.980;2023-04-24T06:29:52;3.92;;;3.58;;
52708;SDS011;38606;52.986;6.980;2023-04-24T06:32:23;4.75;;;4.03;;
52708;SDS011;38606;52.986;6.980;2023-04-24T06:34:50;4.75;;;4.18;;
52708;SDS011;38606;52.986;6.980;2023-04-24T06:37:18;4.28;;;3.88;;
52708;SDS011;38606;52.986;6.980;2023-04-24T06:39:45;5.75;;;3.85;;
52708;SDS011;38606;52.986;6.980;2023-04-24T06:42:14;4.22;;;3.42;;
52708;SDS011;38606;52.986;6.980;2023-04-24T06:44:40;6.43;;;3.90;;
52708;SDS011;38606;52.986;6.980;2023-04-24T06:47:09;4.78;;;3.55;;
52708;SDS011;38606;52.986;6.980;2023-04-24T06:49:36;3.83;;;3.42;;
52708;SDS011;38606;52.986;6.980;2023-04-24T06:52:02;3.65;;;3.35;;
52708;SDS011;38606;52.986;6.980;2023-04-24T06:54:28;3.55;;;3.25;;
52708;SDS011;38606;52.986;6.980;2023-04-24T06:56:55;4.10;;;3.53;;
52708;SDS011;38606;52.986;6.980;2023-04-24T06:59:22;4.45;;;3.50;;
52708;SDS011;38606;52.986;6.980;2023-04-24T07:01:49;3.58;;;3.28;;
52708;SDS011;38606;52.986;6.980;2023-04-24T07:04:16;4.38;;;3.20;;
52708;SDS011;38606;52.986;6.980;2023-04-24T07:06:42;4.13;;;3.00;;
52708;SDS011;38606;52.986;6.980;2023-04-24T07:09:09;3.72;;;3.22;;
52708;SDS011;38606;52.986;6.980;2023-04-24T07:11:35;5.07;;;2.90;;
52708;SDS011;38606;52.986;6.980;2023-04-24T07:14:03;4.07;;;3.17;;
52708;SDS011;38606;52.986;6.980;2023-04-24T07:16:29;3.33;;;3.03;;
52708;SDS011;38606;52.986;6.980;2023-04-24T07:18:55;7.05;;;3.20;;
52708;SDS011;38606;52.986;6.980;2023-04-24T07:21:20;6.30;;;3.20;;
52708;SDS011;38606;52.986;6.980;2023-04-24T07:23:46;4.30;;;2.88;;
52708;SDS011;38606;52.986;6.980;2023-04-24T07:26:12;3.03;;;2.72;;
52708;SDS011;38606;52.986;6.980;2023-04-24T07:28:40;4.38;;;2.80;;
52708;SDS011;38606;52.986;6.980;2023-04-24T07:31:06;3.53;;;2.55;;
52708;SDS011;38606;52.986;6.980;2023-04-24T07:33:33;3.50;;;2.88;;
52708;SDS011;38606;52.986;6.980;2023-04-24T07:35:59;3.22;;;2.92;;
52708;SDS011;38606;52.986;6.980;2023-04-24T07:38:25;3.92;;;2.50;;
52708;SDS011;38606;52.986;6.980;2023-04-24T07:40:51;2.78;;;2.47;;
52708;SDS011;38606;52.986;6.980;2023-04-24T07:43:17;2.65;;;2.35;;
52708;SDS011;38606;52.986;6.980;2023-04-24T07:45:45;2.90;;;2.70;;
52708;SDS011;38606;52.986;6.980;2023-04-24T07:48:10;2.38;;;2.17;;
52708;SDS011;38606;52.986;6.980;2023-04-24T07:50:38;2.58;;;2.38;;
52708;SDS011;38606;52.986;6.980;2023-04-24T07:53:04;2.45;;;2.25;;
52708;SDS011;38606;52.986;6.980;2023-04-24T07:55:30;2.53;;;2.28;;
52708;SDS011;38606;52.986;6.980;2023-04-24T07:57:56;2.67;;;2.47;;
52708;SDS011;38606;52.986;6.980;2023-04-24T08:00:22;2.88;;;2.50;;
52708;SDS011;38606;52.986;6.980;2023-04-24T08:02:47;3.45;;;3.08;;
52708;SDS011;38606;52.986;6.980;2023-04-24T08:05:13;3.88;;;3.33;;
52708;SDS011;38606;52.986;6.980;2023-04-24T08:07:39;3.38;;;2.65;;
52708;SDS011;38606;52.986;6.980;2023-04-24T08:10:05;4.32;;;2.17;;
52708;SDS011;38606;52.986;6.980;2023-04-24T08:12:31;3.13;;;2.03;;
52708;SDS011;38606;52.986;6.980;2023-04-24T08:14:56;3.95;;;1.42;;
52708;SDS011;38606;52.986;6.980;2023-04-24T08:17:23;1.48;;;1.25;;
52708;SDS011;38606;52.986;6.980;2023-04-24T08:19:49;1.58;;;1.33;;
52708;SDS011;38606;52.986;6.980;2023-04-24T08:22:16;2.38;;;1.55;;
52708;SDS011;38606;52.986;6.980;2023-04-24T08:24:42;5.63;;;1.70;;
52708;SDS011;38606;52.986;6.980;2023-04-24T08:27:09;2.78;;;1.98;;
52708;SDS011;38606;52.986;6.980;2023-04-24T08:29:35;2.97;;;1.70;;
52708;SDS011;38606;52.986;6.980;2023-04-24T08:32:01;5.50;;;1.70;;
52708;SDS011;38606;52.986;6.980;2023-04-24T08:34:27;2.05;;;1.83;;
52708;SDS011;38606;52.986;6.980;2023-04-24T08:36:53;7.90;;;2.60;;
52708;SDS011;38606;52.986;6.980;2023-04-24T08:39:19;6.95;;;2.80;;
52708;SDS011;38606;52.986;6.980;2023-04-24T08:41:45;5.80;;;3.05;;
52708;SDS011;38606;52.986;6.980;2023-04-24T08:44:14;5.57;;;2.83;;
52708;SDS011;38606;52.986;6.980;2023-04-24T08:46:42;6.60;;;3.63;;
52708;SDS011;38606;52.986;6.980;2023-04-24T08:49:11;5.07;;;2.78;;
52708;SDS011;38606;52.986;6.980;2023-04-24T08:51:38;10.77;;;3.30;;
52708;SDS011;38606;52.986;6.980;2023-04-24T08:54:04;10.35;;;3.45;;
52708;SDS011;38606;52.986;6.980;2023-04-24T08:56:32;7.18;;;3.65;;
52708;SDS011;38606;52.986;6.980;2023-04-24T08:58:59;8.63;;;3.97;;
52708;SDS011;38606;52.986;6.980;2023-04-24T09:01:25;9.93;;;4.40;;
52708;SDS011;38606;52.986;6.980;2023-04-24T09:03:52;10.18;;;5.22;;
52708;SDS011;38606;52.986;6.980;2023-04-24T09:06:19;12.43;;;7.03;;
52708;SDS011;38606;52.986;6.980;2023-04-24T09:08:46;13.90;;;8.00;;
52708;SDS011;38606;52.986;6.980;2023-04-24T09:11:14;20.52;;;8.95;;
52708;SDS011;38606;52.986;6.980;2023-04-24T09:13:40;16.85;;;9.40;;
52708;SDS011;38606;52.986;6.980;2023-04-24T09:16:07;15.60;;;9.20;;
52708;SDS011;38606;52.986;6.980;2023-04-24T09:18:33;16.58;;;10.02;;
52708;SDS011;38606;52.986;6.980;2023-04-24T09:21:01;21.90;;;10.98;;
52708;SDS011;38606;52.986;6.980;2023-04-24T09:23:29;22.70;;;11.85;;
52708;SDS011;38606;52.986;6.980;2023-04-24T09:25:56;21.45;;;11.63;;
52708;SDS011;38606;52.986;6.980;2023-04-24T09:28:29;23.63;;;12.07;;
52708;SDS011;38606;52.986;6.980;2023-04-24T09:31:13;21.45;;;12.50;;
52708;SDS011;38606;52.986;6.980;2023-04-24T09:33:52;19.75;;;10.70;;
52708;SDS011;38606;52.986;6.980;2023-04-24T09:36:30;23.27;;;11.60;;
52708;SDS011;38606;52.986;6.980;2023-04-24T09:39:01;18.20;;;10.90;;
52708;SDS011;38606;52.986;6.980;2023-04-24T09:41:27;19.90;;;11.00;;
52708;SDS011;38606;52.986;6.980;2023-04-24T09:43:56;19.45;;;11.32;;
52708;SDS011;38606;52.986;6.980;2023-04-24T09:46:30;20.52;;;10.63;;
52708;SDS011;38606;52.986;6.980;2023-04-24T09:49:07;27.65;;;11.75;;
52708;SDS011;38606;52.986;6.980;2023-04-24T09:51:43;22.73;;;11.43;;
52708;SDS011;38606;52.986;6.980;2023-04-24T09:54:15;25.15;;;11.02;;
52708;SDS011;38606;52.986;6.980;2023-04-24T09:56:43;20.92;;;11.63;;
52708;SDS011;38606;52.986;6.980;2023-04-24T09:59:11;22.05;;;12.15;;
52708;SDS011;38606;52.986;6.980;2023-04-24T10:01:41;18.40;;;11.57;;
52708;SDS011;38606;52.986;6.980;2023-04-24T10:04:18;22.58;;;13.10;;
52708;SDS011;38606;52.986;6.980;2023-04-24T10:06:46;23.13;;;13.60;;
52708;SDS011;38606;52.986;6.980;2023-04-24T10:09:14;19.58;;;12.02;;
52708;SDS011;38606;52.986;6.980;2023-04-24T10:11:45;22.67;;;13.13;;
52708;SDS011;38606;52.986;6.980;2023-04-24T10:14:12;20.77;;;11.57;;
52708;SDS011;38606;52.986;6.980;2023-04-24T10:16:40;26.63;;;13.75;;
52708;SDS011;38606;52.986;6.980;2023-04-24T10:19:06;20.13;;;12.68;;
52708;SDS011;38606;52.986;6.980;2023-04-24T10:21:34;20.17;;;13.45;;
52708;SDS011;38606;52.986;6.980;2023-04-24T10:24:00;19.55;;;12.35;;
52708;SDS011;38606;52.986;6.980;2023-04-24T10:26:28;17.48;;;11.38;;
52708;SDS011;38606;52.986;6.980;2023-04-24T10:28:54;19.67;;;11.50;;
52708;SDS011;38606;52.986;6.980;2023-04-24T10:31:22;25.58;;;10.57;;
52708;SDS011;38606;52.986;6.980;2023-04-24T10:33:49;18.95;;;9.50;;
52708;SDS011;38606;52.986;6.980;2023-04-24T10:36:17;20.08;;;9.70;;
52708;SDS011;38606;52.986;6.980;2023-04-24T10:38:44;20.08;;;8.75;;
52708;SDS011;38606;52.986;6.980;2023-04-24T10:41:12;17.63;;;7.97;;
52708;SDS011;38606;52.986;6.980;2023-04-24T10:43:41;13.95;;;8.95;;
52708;SDS011;38606;52.986;6.980;2023-04-24T10:46:08;18.20;;;8.77;;
52708;SDS011;38606;52.986;6.980;2023-04-24T10:48:42;17.42;;;8.55;;
52708;SDS011;38606;52.986;6.980;2023-04-24T10:51:11;17.38;;;8.48;;
52708;SDS011;38606;52.986;6.980;2023-04-24T10:53:39;16.05;;;8.43;;
52708;SDS011;38606;52.986;6.980;2023-04-24T10:56:05;19.48;;;7.80;;
52708;SDS011;38606;52.986;6.980;2023-04-24T10:58:51;18.70;;;6.22;;
52708;SDS011;38606;52.986;6.980;2023-04-24T11:01:26;13.82;;;6.13;;
52708;SDS011;38606;52.986;6.980;2023-04-24T11:04:00;14.25;;;6.05;;
52708;SDS011;38606;52.986;6.980;2023-04-24T11:06:37;14.82;;;5.47;;
52708;SDS011;38606;52.986;6.980;2023-04-24T11:11:29;11.82;;;5.20;;
52708;SDS011;38606;52.986;6.980;2023-04-24T11:16:25;10.38;;;5.40;;
52708;SDS011;38606;52.986;6.980;2023-04-24T11:19:02;11.68;;;4.72;;
52708;SDS011;38606;52.986;6.980;2023-04-24T11:21:31;12.85;;;4.75;;
52708;SDS011;38606;52.986;6.980;2023-04-24T11:24:25;10.13;;;5.03;;
52708;SDS011;38606;52.986;6.980;2023-04-24T11:26:51;10.35;;;4.70;;
52708;SDS011;38606;52.986;6.980;2023-04-24T11:29:19;10.27;;;3.60;;
52708;SDS011;38606;52.986;6.980;2023-04-24T11:31:46;10.90;;;3.97;;
52708;SDS011;38606;52.986;6.980;2023-04-24T11:34:15;9.55;;;3.45;;
52708;SDS011;38606;52.986;6.980;2023-04-24T11:36:45;15.88;;;3.05;;
52708;SDS011;38606;52.986;6.980;2023-04-24T11:39:12;7.70;;;2.55;;
52708;SDS011;38606;52.986;6.980;2023-04-24T11:41:38;9.38;;;2.30;;
52708;SDS011;38606;52.986;6.980;2023-04-24T11:44:05;4.97;;;2.35;;
52708;SDS011;38606;52.986;6.980;2023-04-24T11:46:32;9.25;;;2.47;;
52708;SDS011;38606;52.986;6.980;2023-04-24T11:48:58;6.85;;;2.40;;
52708;SDS011;38606;52.986;6.980;2023-04-24T11:51:25;7.93;;;2.10;;
52708;SDS011;38606;52.986;6.980;2023-04-24T11:53:55;5.55;;;2.10;;
52708;SDS011;38606;52.986;6.980;2023-04-24T11:56:21;9.75;;;2.78;;
52708;SDS011;38606;52.986;6.980;2023-04-24T11:58:53;9.55;;;2.33;;
52708;SDS011;38606;52.986;6.980;2023-04-24T12:01:22;11.95;;;2.72;;
52708;SDS011;38606;52.986;6.980;2023-04-24T12:03:48;8.20;;;2.25;;
52708;SDS011;38606;52.986;6.980;2023-04-24T12:06:16;3.42;;;1.90;;
52708;SDS011;38606;52.986;6.980;2023-04-24T12:08:45;7.47;;;2.78;;
52708;SDS011;38606;52.986;6.980;2023-04-24T12:11:14;5.72;;;2.08;;
52708;SDS011;38606;52.986;6.980;2023-04-24T12:13:40;7.55;;;2.30;;
52708;SDS011;38606;52.986;6.980;2023-04-24T12:16:06;6.88;;;2.05;;
52708;SDS011;38606;52.986;6.980;2023-04-24T12:18:32;5.15;;;1.90;;
52708;SDS011;38606;52.986;6.980;2023-04-24T12:21:14;6.13;;;2.20;;
52708;SDS011;38606;52.986;6.980;2023-04-24T12:23:48;7.00;;;2.03;;
52708;SDS011;38606;52.986;6.980;2023-04-24T12:26:18;5.85;;;1.83;;
52708;SDS011;38606;52.986;6.980;2023-04-24T12:28:46;7.88;;;2.25;;
52708;SDS011;38606;52.986;6.980;2023-04-24T12:31:14;7.57;;;2.45;;
52708;SDS011;38606;52.986;6.980;2023-04-24T12:33:45;13.70;;;2.10;;
52708;SDS011;38606;52.986;6.980;2023-04-24T12:36:11;9.20;;;2.00;;
52708;SDS011;38606;52.986;6.980;2023-04-24T12:38:37;7.38;;;1.80;;
52708;SDS011;38606;52.986;6.980;2023-04-24T12:43:33;5.15;;;1.40;;
52708;SDS011;38606;52.986;6.980;2023-04-24T12:45:59;8.48;;;1.70;;
52708;SDS011;38606;52.986;6.980;2023-04-24T12:48:28;4.07;;;1.67;;
52708;SDS011;38606;52.986;6.980;2023-04-24T12:50:54;4.97;;;1.40;;
52708;SDS011;38606;52.986;6.980;2023-04-24T12:53:22;5.30;;;1.63;;
52708;SDS011;38606;52.986;6.980;2023-04-24T12:55:47;5.85;;;1.45;;
52708;SDS011;38606;52.986;6.980;2023-04-24T12:58:19;5.45;;;1.70;;
52708;SDS011;38606;52.986;6.980;2023-04-24T13:00:45;9.77;;;2.88;;
52708;SDS011;38606;52.986;6.980;2023-04-24T13:03:11;8.18;;;2.13;;
52708;SDS011;38606;52.986;6.980;2023-04-24T13:08:57;5.85;;;2.17;;
52708;SDS011;38606;52.986;6.980;2023-04-24T13:11:23;6.13;;;1.88;;
52708;SDS011;38606;52.986;6.980;2023-04-24T13:13:49;7.63;;;1.83;;
52708;SDS011;38606;52.986;6.980;2023-04-24T13:16:15;7.80;;;1.65;;
52708;SDS011;38606;52.986;6.980;2023-04-24T13:18:41;7.95;;;1.90;;
52708;SDS011;38606;52.986;6.980;2023-04-24T13:21:07;7.18;;;1.73;;
52708;SDS011;38606;52.986;6.980;2023-04-24T13:23:33;7.90;;;1.80;;
52708;SDS011;38606;52.986;6.980;2023-04-24T13:25:59;5.88;;;1.80;;
52708;SDS011;38606;52.986;6.980;2023-04-24T13:28:26;6.43;;;2.20;;
52708;SDS011;38606;52.986;6.980;2023-04-24T13:30:52;3.40;;;1.67;;
52708;SDS011;38606;52.986;6.980;2023-04-24T13:33:18;6.32;;;1.83;;
52708;SDS011;38606;52.986;6.980;2023-04-24T13:35:44;16.27;;;2.35;;
52708;SDS011;38606;52.986;6.980;2023-04-24T13:38:10;7.57;;;1.98;;
52708;SDS011;38606;52.986;6.980;2023-04-24T13:40:35;6.63;;;1.90;;
52708;SDS011;38606;52.986;6.980;2023-04-24T13:43:02;7.05;;;1.60;;
52708;SDS011;38606;52.986;6.980;2023-04-24T13:45:28;5.28;;;1.58;;
52708;SDS011;38606;52.986;6.980;2023-04-24T13:47:54;6.43;;;2.05;;
52708;SDS011;38606;52.986;6.980;2023-04-24T13:50:22;4.93;;;1.20;;
52708;SDS011;38606;52.986;6.980;2023-04-24T13:52:47;5.18;;;1.80;;
52708;SDS011;38606;52.986;6.980;2023-04-24T13:55:13;5.60;;;1.40;;
52708;SDS011;38606;52.986;6.980;2023-04-24T13:57:39;4.75;;;1.25;;
52708;SDS011;38606;52.986;6.980;2023-04-24T14:00:06;6.50;;;1.30;;
52708;SDS011;38606;52.986;6.980;2023-04-24T14:02:34;4.88;;;1.17;;
52708;SDS011;38606;52.986;6.980;2023-04-24T14:05:00;8.50;;;1.02;;
52708;SDS011;38606;52.986;6.980;2023-04-24T14:07:25;4.68;;;1.45;;
52708;SDS011;38606;52.986;6.980;2023-04-24T14:09:53;6.75;;;1.13;;
52708;SDS011;38606;52.986;6.980;2023-04-24T14:12:18;5.18;;;1.20;;
52708;SDS011;38606;52.986;6.980;2023-04-24T14:14:45;5.00;;;0.80;;
52708;SDS011;38606;52.986;6.980;2023-04-24T14:17:12;4.90;;;1.60;;
52708;SDS011;38606;52.986;6.980;2023-04-24T14:19:41;4.07;;;0.80;;
52708;SDS011;38606;52.986;6.980;2023-04-24T14:22:06;4.45;;;0.93;;
52708;SDS011;38606;52.986;6.980;2023-04-24T14:24:32;2.55;;;1.08;;
52708;SDS011;38606;52.986;6.980;2023-04-24T14:26:58;2.83;;;1.02;;
52708;SDS011;38606;52.986;6.980;2023-04-24T14:29:24;3.50;;;1.10;;
52708;SDS011;38606;52.986;6.980;2023-04-24T14:31:51;3.85;;;1.33;;
52708;SDS011;38606;52.986;6.980;2023-04-24T14:34:16;2.88;;;0.85;;
52708;SDS011;38606;52.986;6.980;2023-04-24T14:36:42;1.98;;;0.77;;
52708;SDS011;38606;52.986;6.980;2023-04-24T14:39:08;4.65;;;1.00;;
52708;SDS011;38606;52.986;6.980;2023-04-24T14:41:35;3.72;;;1.10;;
52708;SDS011;38606;52.986;6.980;2023-04-24T14:44:02;3.75;;;0.85;;
52708;SDS011;38606;52.986;6.980;2023-04-24T14:46:29;2.42;;;0.90;;
52708;SDS011;38606;52.986;6.980;2023-04-24T14:48:57;4.30;;;1.05;;
52708;SDS011;38606;52.986;6.980;2023-04-24T14:51:23;4.38;;;1.33;;